createdAt,value
2023-03-05T00:01:05.204Z,100006.84
2023-03-05T00:04:12.086Z,100005.22
2023-03-05T00:07:14.721Z,100005.94
2023-03-05T00:10:17.548Z,100007.03
2023-03-05T00:13:20.134Z,99972.09
2023-03-05T00:16:23.428Z,99982.34
2023-03-05T00:19:26.153Z,99972.03
2023-03-05T00:22:28.925Z,99998.34
2023-03-05T00:25:31.519Z,100006.13
2023-03-05T00:28:34.227Z,99984.09
2023-03-05T00:31:38.156Z,100009.38
2023-03-05T00:34:40.843Z,100017.06
2023-03-05T00:37:43.420Z,99984.63
2023-03-05T00:40:46.090Z,99995.66
2023-03-05T00:43:50.220Z,99989.69
2023-03-05T00:46:52.971Z,100008.28
2023-03-05T00:49:55.695Z,100013.34
2023-03-05T00:52:58.365Z,100015.06
2023-03-05T00:56:01.435Z,99993.91
2023-03-05T00:59:04.041Z,99987.16
2023-03-05T01:02:06.659Z,99982.06
2023-03-05T01:05:13.853Z,100021.06
2023-03-05T01:08:17.019Z,99951.41
2023-03-05T01:11:19.739Z,99947.84
2023-03-05T01:14:22.580Z,100007.06
2023-03-05T01:17:25.237Z,100009.47
2023-03-05T01:20:28.134Z,99996.81
2023-03-05T01:23:30.908Z,99978.19
2023-03-05T01:26:33.891Z,99977.31
2023-03-05T01:29:37.239Z,100016.25
2023-03-05T01:32:40.336Z,100007.59
2023-03-05T01:35:43.075Z,100002.59
2023-03-05T01:38:47.656Z,100016.88
2023-03-05T01:41:50.265Z,99976.38
2023-03-05T01:45:07.062Z,100014.44
2023-03-05T01:48:09.702Z,100004.84
2023-03-05T01:51:13.022Z,99990.78
2023-03-05T01:54:19.564Z,100011.06
2023-03-05T01:57:44.755Z,99982.09
2023-03-05T02:00:50.631Z,99984.66
2023-03-05T02:03:53.517Z,100012.59
2023-03-05T02:06:56.568Z,100005.78
2023-03-05T02:09:59.544Z,100003.97
2023-03-05T02:13:06.639Z,100002.44
2023-03-05T02:16:09.772Z,99978.03
2023-03-05T02:19:13.490Z,100004.34
2023-03-05T02:22:18.264Z,99998.31
2023-03-05T02:25:26.511Z,100001.50
2023-03-05T02:28:29.640Z,99998.09
2023-03-05T02:31:32.390Z,99997.25
2023-03-05T02:34:36.771Z,100007.38
2023-03-05T02:37:39.730Z,99982.13
2023-03-05T02:40:43.502Z,99999.59
2023-03-05T02:43:46.199Z,99969.22
2023-03-05T02:46:49.085Z,100001.28
2023-03-05T02:49:51.766Z,99968.22
2023-03-05T02:52:54.448Z,99978.63
2023-03-05T02:55:58.060Z,99999.03
2023-03-05T02:59:00.761Z,99999.91
2023-03-05T03:02:03.942Z,99979.03
2023-03-05T03:05:07.528Z,99974.72
2023-03-05T03:08:10.498Z,99984.34
2023-03-05T03:11:13.797Z,100003.13
2023-03-05T03:14:16.294Z,99975.25
2023-03-05T03:17:19.474Z,99964.25
2023-03-05T03:20:22.467Z,99991.16
2023-03-05T03:23:25.533Z,99967.53
2023-03-05T03:26:28.607Z,99993.75
2023-03-05T03:29:31.612Z,100013.38
2023-03-05T03:32:34.608Z,99994.59
2023-03-05T03:35:37.223Z,99973.31
2023-03-05T03:38:39.826Z,100000.13
2023-03-05T03:41:44.959Z,99969.59
2023-03-05T03:44:48.407Z,100011.72
2023-03-05T03:47:51.879Z,99979.56
2023-03-05T03:50:54.429Z,99992.25
2023-03-05T03:53:57.303Z,99982.06
2023-03-05T03:56:59.991Z,100008.25
2023-03-05T04:00:07.002Z,100007.34
2023-03-05T04:03:14.511Z,100002.16
2023-03-05T04:06:17.119Z,100000.28
2023-03-05T04:09:19.876Z,100000.53
2023-03-05T04:12:22.446Z,99978.72
2023-03-05T04:15:25.168Z,100004.06
2023-03-05T04:18:27.856Z,99961.56
2023-03-05T04:21:33.683Z,99991.13
2023-03-05T04:24:36.183Z,99972.41
2023-03-05T04:27:40.513Z,99985.22
2023-03-05T04:30:43.109Z,99965.06
2023-03-05T04:33:45.614Z,99984.41
2023-03-05T04:36:48.182Z,99992.00
2023-03-05T04:39:51.282Z,99964.81
2023-03-05T04:42:53.947Z,99975.78
2023-03-05T04:45:56.554Z,99979.69
2023-03-05T04:48:59.554Z,99953.41
2023-03-05T04:52:02.255Z,99981.31
2023-03-05T04:55:05.104Z,99979.44
2023-03-05T04:58:07.691Z,99977.69
2023-03-05T05:01:10.747Z,99953.19
2023-03-05T05:04:13.499Z,99983.53
2023-03-05T05:07:16.525Z,99953.88
2023-03-05T05:10:19.190Z,99950.66
2023-03-05T05:13:21.775Z,99958.19
2023-03-05T05:16:24.485Z,99992.66
2023-03-05T05:19:27.271Z,99966.56
2023-03-05T05:22:29.859Z,99997.19
2023-03-05T05:25:32.428Z,99998.88
2023-03-05T05:28:35.823Z,99983.91
2023-03-05T05:31:39.133Z,100006.00
2023-03-05T05:34:41.884Z,100015.56
2023-03-05T05:37:44.495Z,100010.69
2023-03-05T05:40:47.026Z,100010.66
2023-03-05T05:43:50.304Z,100025.06
2023-03-05T05:46:52.874Z,99994.56
2023-03-05T05:49:56.224Z,100021.59
2023-03-05T05:52:58.915Z,100031.75
2023-03-05T05:56:03.713Z,100010.63
2023-03-05T05:59:06.429Z,100014.81
2023-03-05T06:02:11.323Z,99998.63
2023-03-05T06:05:14.938Z,100002.84
2023-03-05T06:08:18.070Z,100028.31
2023-03-05T06:11:21.820Z,100033.34
2023-03-05T06:14:24.489Z,100038.38
2023-03-05T06:17:30.723Z,100012.00
2023-03-05T06:20:33.505Z,100020.69
2023-03-05T06:23:36.568Z,100041.88
2023-03-05T06:26:39.274Z,100027.19
2023-03-05T06:29:41.854Z,100037.22
2023-03-05T06:32:44.499Z,100036.50
2023-03-05T06:35:47.117Z,100015.41
2023-03-05T06:38:52.764Z,100004.25
2023-03-05T06:41:55.831Z,100037.97
2023-03-05T06:44:58.402Z,100034.53
2023-03-05T06:48:01.034Z,100030.91
2023-03-05T06:51:04.031Z,100019.81
2023-03-05T06:54:17.360Z,100014.31
2023-03-05T06:57:19.870Z,100046.25
2023-03-05T07:00:23.026Z,100031.91
2023-03-05T07:03:26.196Z,100019.84
2023-03-05T07:06:32.081Z,100018.94
2023-03-05T07:09:34.726Z,100035.66
2023-03-05T07:12:38.876Z,100041.56
2023-03-05T07:15:42.066Z,100016.75
2023-03-05T07:18:46.421Z,100020.88
2023-03-05T07:21:48.995Z,100026.00
2023-03-05T07:24:51.610Z,100044.00
2023-03-05T07:27:54.250Z,100011.41
2023-03-05T07:31:02.454Z,100008.78
2023-03-05T07:34:06.635Z,100014.75
2023-03-05T07:37:09.295Z,100040.00
2023-03-05T07:40:12.174Z,100046.72
2023-03-05T07:43:14.858Z,100040.97
2023-03-05T07:46:19.725Z,100020.97
2023-03-05T07:49:23.841Z,100034.91
2023-03-05T07:52:26.516Z,100035.75
2023-03-05T07:55:29.194Z,100034.50
2023-03-05T07:58:31.950Z,100044.78
2023-03-05T08:01:35.430Z,100038.75
2023-03-05T08:04:38.632Z,100030.94
2023-03-05T08:07:41.173Z,100033.28
2023-03-05T08:10:43.764Z,99994.72
2023-03-05T08:13:46.425Z,100010.50
2023-03-05T08:16:52.336Z,100015.06
2023-03-05T08:19:57.748Z,100029.44
2023-03-05T08:23:01.169Z,100008.47
2023-03-05T08:26:12.029Z,100000.97
2023-03-05T08:29:14.604Z,100044.81
2023-03-05T08:32:17.167Z,100010.00
2023-03-05T08:35:19.797Z,100011.59
2023-03-05T08:38:22.407Z,100013.56
2023-03-05T08:41:25.111Z,100031.59
2023-03-05T08:44:27.758Z,100014.66
2023-03-05T08:47:30.307Z,100024.06
2023-03-05T08:50:32.883Z,100020.59
2023-03-05T08:53:36.751Z,100016.66
2023-03-05T08:56:39.831Z,100026.25
2023-03-05T08:59:42.375Z,100018.53
2023-03-05T09:02:45.015Z,99998.25
2023-03-05T09:05:47.871Z,99998.78
2023-03-05T09:08:50.564Z,100018.91
2023-03-05T09:11:53.166Z,100018.53
2023-03-05T09:14:56.553Z,99980.59
2023-03-05T09:17:59.765Z,100008.94
2023-03-05T09:21:10.749Z,100002.16
2023-03-05T09:24:13.659Z,99987.81
2023-03-05T09:27:16.227Z,100006.91
2023-03-05T09:30:19.290Z,99999.50
2023-03-05T09:33:22.012Z,99974.84
2023-03-05T09:36:27.681Z,99994.66
2023-03-05T09:39:30.446Z,99993.31
2023-03-05T09:43:05.064Z,99989.66
2023-03-05T09:46:18.798Z,99995.63
2023-03-05T09:49:50.979Z,99967.13
2023-03-05T09:53:02.895Z,99971.03
2023-03-05T09:56:12.692Z,99948.72
2023-03-05T09:59:25.790Z,99940.72
2023-03-05T10:02:34.487Z,99948.91
2023-03-05T10:06:01.108Z,99982.78
2023-03-05T10:09:09.714Z,99985.63
2023-03-05T10:12:25.374Z,99953.50
2023-03-05T10:15:40.123Z,99972.06
2023-03-05T10:18:43.211Z,99966.69
2023-03-05T10:22:22.984Z,99953.69
2023-03-05T10:25:53.259Z,99967.59
2023-03-05T10:29:04.730Z,99956.47
2023-03-05T10:32:22.443Z,99963.09
2023-03-05T10:35:46.596Z,99957.03
2023-03-05T10:39:36.816Z,99948.28
2023-03-05T10:42:54.124Z,99943.66
2023-03-05T10:45:57.476Z,99930.56
2023-03-05T10:49:12.683Z,99938.38
2023-03-05T10:52:20.123Z,99900.38
2023-03-05T10:55:23.704Z,99914.53
2023-03-05T10:58:26.307Z,99894.94
2023-03-05T11:01:31.052Z,99883.66
2023-03-05T11:04:36.721Z,99916.16
2023-03-05T11:07:39.498Z,99872.56
2023-03-05T11:10:42.353Z,99895.50
2023-03-05T11:13:51.958Z,99900.28
2023-03-05T11:16:54.444Z,99888.13
2023-03-05T11:19:58.859Z,99835.50
2023-03-05T11:23:17.931Z,99862.09
2023-03-05T11:26:23.305Z,99888.94
2023-03-05T11:29:28.740Z,99840.66
2023-03-05T11:32:32.127Z,99868.81
2023-03-05T11:35:38.452Z,99843.28
2023-03-05T11:38:52.958Z,99857.69
2023-03-05T11:42:12.060Z,99853.88
2023-03-05T11:45:18.022Z,99820.09
2023-03-05T11:48:26.652Z,99847.59
2023-03-05T11:51:46.257Z,99825.25
2023-03-05T11:55:09.218Z,99845.44
2023-03-05T11:58:39.541Z,99836.25
2023-03-05T12:01:54.569Z,99843.81
2023-03-05T12:04:59.539Z,99830.72
2023-03-05T12:08:03.082Z,99768.69
2023-03-05T12:11:26.407Z,99830.13
2023-03-05T12:14:44.814Z,99820.72
2023-03-05T12:17:59.576Z,99818.50
2023-03-05T12:21:07.281Z,99820.75
2023-03-05T12:24:28.019Z,99807.97
2023-03-05T12:27:36.973Z,99806.34
2023-03-05T12:30:42.375Z,99800.41
2023-03-05T12:33:45.054Z,99803.28
2023-03-05T12:36:47.746Z,99802.03
2023-03-05T12:40:12.848Z,99768.13
2023-03-05T12:43:31.831Z,99790.59
2023-03-05T12:46:43.133Z,99766.75
2023-03-05T12:49:47.172Z,99793.59
2023-03-05T12:52:49.785Z,99786.84
2023-03-05T12:56:14.414Z,99774.28
2023-03-05T12:59:21.950Z,99723.38
2023-03-05T13:02:34.669Z,99772.34
2023-03-05T13:05:39.424Z,99743.88
2023-03-05T13:08:43.702Z,99746.13
2023-03-05T13:11:49.960Z,99761.59
2023-03-05T13:15:03.509Z,99740.16
2023-03-05T13:18:08.681Z,99738.44
2023-03-05T13:21:16.631Z,99731.94
2023-03-05T13:24:20.164Z,99738.09
2023-03-05T13:27:30.874Z,99726.22
2023-03-05T13:30:34.868Z,99743.41
2023-03-05T13:33:37.731Z,99737.53
2023-03-05T13:36:46.727Z,99710.97
2023-03-05T13:39:54.026Z,99731.25
2023-03-05T13:43:13.652Z,99704.91
2023-03-05T13:46:34.640Z,99720.09
2023-03-05T13:49:37.441Z,99681.78
2023-03-05T13:52:40.879Z,99681.53
2023-03-05T13:55:43.855Z,99659.00
2023-03-05T13:58:54.883Z,99702.81
2023-03-05T14:02:00.430Z,99685.28
2023-03-05T14:05:03.276Z,99674.94
2023-03-05T14:08:05.931Z,99665.66
2023-03-05T14:11:17.525Z,99682.44
2023-03-05T14:14:22.931Z,99683.53
2023-03-05T14:17:38.371Z,99657.56
2023-03-05T14:20:59.573Z,99671.25
2023-03-05T14:24:13.271Z,99682.94
2023-03-05T14:27:21.133Z,99666.06
2023-03-05T14:30:25.114Z,99676.47
2023-03-05T14:33:32.696Z,99646.56
2023-03-05T14:36:35.726Z,99675.28
2023-03-05T14:39:46.418Z,99675.03
2023-03-05T14:43:00.780Z,99667.88
2023-03-05T14:46:04.696Z,99643.44
2023-03-05T14:49:08.280Z,99620.25
2023-03-05T14:52:17.072Z,99668.16
2023-03-05T14:55:23.118Z,99638.38
2023-03-05T14:58:29.308Z,99665.78
2023-03-05T15:01:33.240Z,99663.00
2023-03-05T15:04:36.115Z,99667.75
2023-03-05T15:07:38.982Z,99655.28
2023-03-05T15:10:41.870Z,99662.41
2023-03-05T15:13:44.875Z,99625.06
2023-03-05T15:16:48.920Z,99661.56
2023-03-05T15:19:53.884Z,99632.84
2023-03-05T15:22:56.594Z,99658.72
2023-03-05T15:26:03.727Z,99638.06
2023-03-05T15:29:06.305Z,99628.25
2023-03-05T15:32:09.075Z,99624.94
2023-03-05T15:35:12.295Z,99653.38
2023-03-05T15:38:16.218Z,99631.63
2023-03-05T15:41:19.148Z,99651.13
2023-03-05T15:44:22.112Z,99631.81
2023-03-05T15:47:25.996Z,99642.25
2023-03-05T15:50:29.154Z,99629.69
2023-03-05T15:53:31.982Z,99665.19
2023-03-05T15:56:34.818Z,99652.88
2023-03-05T15:59:37.704Z,99632.22
2023-03-05T16:02:41.934Z,99661.06
2023-03-05T16:05:45.008Z,99659.72
2023-03-05T16:08:47.970Z,99607.50
2023-03-05T16:11:51.643Z,99661.41
2023-03-05T16:14:54.452Z,99665.50
2023-03-05T16:18:00.646Z,99642.78
2023-03-05T16:21:04.683Z,99647.34
2023-03-05T16:24:07.509Z,99666.97
2023-03-05T16:27:11.092Z,99664.91
2023-03-05T16:30:17.504Z,99678.66
2023-03-05T16:33:20.526Z,99653.91
2023-03-05T16:36:26.422Z,99669.69
2023-03-05T16:39:29.431Z,99673.88
2023-03-05T16:42:32.388Z,99642.72
2023-03-05T16:45:35.123Z,99673.75
2023-03-05T16:48:38.481Z,99653.00
2023-03-05T16:51:41.522Z,99648.09
2023-03-05T16:54:44.903Z,99680.28
2023-03-05T16:57:47.799Z,99657.06
2023-03-05T17:00:50.768Z,99682.25
2023-03-05T17:03:53.758Z,99652.69
2023-03-05T17:06:56.737Z,99687.56
2023-03-05T17:09:59.833Z,99694.47
2023-03-05T17:13:02.371Z,99688.59
2023-03-05T17:16:06.196Z,99662.78
2023-03-05T17:19:09.403Z,99664.50
2023-03-05T17:22:16.301Z,99690.56
2023-03-05T17:25:19.337Z,99675.69
2023-03-05T17:28:25.191Z,99671.75
2023-03-05T17:31:28.381Z,99678.59
2023-03-05T17:34:36.740Z,99699.09
2023-03-05T17:37:39.792Z,99675.66
2023-03-05T17:40:42.764Z,99677.41
2023-03-05T17:43:45.760Z,99682.81
2023-03-05T17:46:48.326Z,99697.91
2023-03-05T17:49:51.409Z,99671.00
2023-03-05T17:52:54.261Z,99666.66
2023-03-05T17:55:57.217Z,99698.94
2023-03-05T17:59:00.511Z,99701.38
2023-03-05T18:02:03.738Z,99680.38
2023-03-05T18:05:07.239Z,99699.84
2023-03-05T18:08:10.130Z,99640.97
2023-03-05T18:11:13.064Z,99699.25
2023-03-05T18:14:17.043Z,99665.56
2023-03-05T18:17:20.063Z,99703.56
2023-03-05T18:20:38.904Z,99678.31
2023-03-05T18:23:41.825Z,99701.69
2023-03-05T18:26:44.756Z,99688.31
2023-03-05T18:29:47.558Z,99679.28
2023-03-05T18:32:51.433Z,99705.50
2023-03-05T18:35:54.373Z,99677.09
2023-03-05T18:38:57.382Z,99682.16
2023-03-05T18:42:00.617Z,99703.13
2023-03-05T18:45:09.787Z,99666.00
2023-03-05T18:48:12.720Z,99699.22
2023-03-05T18:51:18.983Z,99696.66
2023-03-05T18:54:22.121Z,99670.63
2023-03-05T18:57:25.122Z,99704.41
2023-03-05T19:00:30.413Z,99685.00
2023-03-05T19:03:33.903Z,99698.50
2023-03-05T19:06:38.403Z,99681.25
2023-03-05T19:10:02.353Z,99711.28
2023-03-05T19:13:43.556Z,99707.78
2023-03-05T19:16:46.507Z,99691.97
2023-03-05T19:19:51.546Z,99676.25
2023-03-05T19:22:55.810Z,99703.22
2023-03-05T19:26:00.304Z,99703.22
2023-03-05T19:29:03.841Z,99679.88
2023-03-05T19:32:08.903Z,99681.63
2023-03-05T19:35:15.444Z,99671.94
2023-03-05T19:38:18.529Z,99677.38
2023-03-05T19:41:21.862Z,99687.78
2023-03-05T19:44:25.132Z,99710.59
2023-03-05T19:47:28.117Z,99685.38
2023-03-05T19:50:33.422Z,99718.41
2023-03-05T19:53:36.958Z,99686.81
2023-03-05T19:56:41.522Z,99721.50
2023-03-05T19:59:46.146Z,99723.19
2023-03-05T20:02:48.976Z,99722.38
2023-03-05T20:05:51.907Z,99685.53
2023-03-05T20:08:55.232Z,99690.72
2023-03-05T20:12:00.710Z,99723.03
2023-03-05T20:15:04.045Z,99688.63
2023-03-05T20:18:09.140Z,99702.38
2023-03-05T20:21:21.238Z,99684.84
2023-03-05T20:24:23.935Z,99710.75
2023-03-05T20:27:26.569Z,99713.47
2023-03-05T20:30:29.398Z,99720.44
2023-03-05T20:33:32.235Z,99717.88
2023-03-05T20:36:35.634Z,99683.34
2023-03-05T20:39:38.400Z,99717.22
2023-03-05T20:42:41.855Z,99722.47
2023-03-05T20:45:45.215Z,99711.69
2023-03-05T20:48:50.571Z,99714.78
2023-03-05T20:51:53.711Z,99652.88
2023-03-05T20:54:56.798Z,99710.09
2023-03-05T20:57:59.960Z,99681.72
2023-03-05T21:01:02.904Z,99687.91
2023-03-05T21:04:07.251Z,99693.91
2023-03-05T21:07:09.931Z,99710.59
2023-03-05T21:10:14.169Z,99708.84
2023-03-05T21:13:17.133Z,99691.91
2023-03-05T21:16:23.130Z,99682.44
2023-03-05T21:19:26.047Z,99715.19
2023-03-05T21:22:29.491Z,99687.22
2023-03-05T21:25:32.930Z,99649.47
2023-03-05T21:28:36.059Z,99683.84
2023-03-05T21:31:38.916Z,99716.03
2023-03-05T21:34:43.840Z,99703.25
2023-03-05T21:37:47.054Z,99708.53
2023-03-05T21:40:50.561Z,99683.16
2023-03-05T21:43:53.281Z,99705.75
2023-03-05T21:46:56.090Z,99676.28
2023-03-05T21:49:58.697Z,99682.09
2023-03-05T21:53:02.688Z,99681.09
2023-03-05T21:56:28.073Z,99708.94
2023-03-05T21:59:31.004Z,99676.84
2023-03-05T22:02:33.637Z,99700.47
2023-03-05T22:05:36.288Z,99677.44
2023-03-05T22:08:39.299Z,99682.56
2023-03-05T22:11:42.840Z,99706.22
2023-03-05T22:14:45.374Z,99666.06
2023-03-05T22:17:48.055Z,99709.22
2023-03-05T22:20:51.269Z,99709.97
2023-03-05T22:23:57.014Z,99710.00
2023-03-05T22:26:59.602Z,99702.38
2023-03-05T22:30:02.291Z,99695.69
2023-03-05T22:33:06.408Z,99678.78
2023-03-05T22:36:12.582Z,99670.94
2023-03-05T22:39:15.210Z,99695.69
2023-03-05T22:42:17.780Z,99662.34
2023-03-05T22:45:20.492Z,99673.31
2023-03-05T22:48:23.154Z,99657.84
2023-03-05T22:51:25.751Z,99691.00
2023-03-05T22:54:28.363Z,99699.88
2023-03-05T22:57:33.133Z,99702.50
2023-03-05T23:00:35.804Z,99657.69
2023-03-05T23:03:39.083Z,99668.47
2023-03-05T23:06:41.738Z,99705.63
2023-03-05T23:09:45.326Z,99697.25
2023-03-05T23:12:51.166Z,99670.09
2023-03-05T23:15:53.785Z,99693.88
2023-03-05T23:18:56.386Z,99696.03
2023-03-05T23:21:59.006Z,99665.31
2023-03-05T23:25:01.587Z,99700.09
2023-03-05T23:28:04.461Z,99673.41
2023-03-05T23:31:07.087Z,99670.06
2023-03-05T23:34:09.655Z,99680.13
2023-03-05T23:37:12.220Z,99710.56
2023-03-05T23:40:19.431Z,99677.91
2023-03-05T23:43:25.175Z,99703.25
2023-03-05T23:46:27.861Z,99711.88
2023-03-05T23:49:30.480Z,99711.63
2023-03-05T23:52:33.566Z,99682.09
2023-03-05T23:55:41.635Z,99708.38
2023-03-05T23:58:44.183Z,99715.72
